Terminal Aerodrome Forecast
Issued by NWS Wilmington, NC

Home | Current Version | Previous Version | Text Only | Print | Product List | Glossary On
Versions: 1 2 3 4 5 6 7 8 9 10 11 12 13 14 15
764
FTUS42 KILM 231730
TAFMYR
TAF
KMYR 231730Z 2318/2418 14011G21KT P6SM VCSH BKN045
     FM232100 17013G23KT P6SM VCSH BKN030
      TEMPO 2400/2404 2SM SHRA BKN025
     FM240400 19013KT 4SM -SHRA BKN020
      TEMPO 2409/2412 2SM SHRA
     FM241300 22010KT P6SM VCSH BKN025=

USA.gov is the U.S. government's official web portal to all federal, state and local government web resources and services.